Accueil
METAR-TAF:

METAR-TAF

Aéroports :

Vancouver, Washington, États-Unis

Pearson Field

latitude: 45-37-24N, longitude: 122-39-23W, altitude: 7 m

Observation

Le bulletin a été fait il y a 19 minutes, à 10:53 UTC
Vent calme
Température -2°C
Humidité 86%
Pression 1029 hPa
Visibilité: 16.1 km
Ciel clair

METAR: KVUO 111053Z AUTO 00000KT 10SM CLR M02/M04 A3040 RMK AO2 SLP294 T10221039

Heure: 03:12 (11:12 UTC)


TAF: absent

Observations et prévisions météorologiques de plus de 4000 aéroports (messages METAR et TAF).

Les stations disponibles sont représentées par des disques jaunes et rouges sur la carte.

Passer la souris dessus pour voir le nom de la station.

Cliquer dessus pour voir les observations et prévisions météorologiques.

Pour changer de carte: cliquez sur les boutons verts avec une croix noire pour zoomer, sur le bouton vert avec un tiret pour effectuer un zoom arrière, ou sur les flèches vertes pour les cartes adjacentes.


METAR-TAF: